Aviation Digital Data Service (ADDS)

Output produced by METARs form (1058 UTC 19 January 2019)
found at http://www.aviationweather.gov/metar/data/
 
SAZS 191000Z 18008KT CAVOK 10/M02 Q1017
TAF SAZS 190500Z 1906/2006 16010KT CAVOK TX28/1918Z TN12/1909Z 
     BECMG 1912/1915 29015KT
       
SABE 191000Z 23002KT 9999 SCT025 19/14 Q1022 NOSIG
TAF SABE 190500Z 1906/2006 14005KT 9999 SCT030 SCT040 TX24/1918Z TN19/1909Z 
     PROB40 1908/1912 VRB03KT 8000 -RA BKN030 BKN050 
     BECMG 1913/1915 09015KT 9999 SCT030 
     BECMG 1921/1923 CAVOK
       
SAEZ 191000Z 19002KT CAVOK 13/13 Q1022 NOSIG
TAF SAEZ 190500Z 1906/2006 14005KT CAVOK TX26/1918Z TN13/1910Z 
     PROB30 1907/1910 5000 BR SCT008 
     BECMG 1914/1917 05010KT 9999 FEW020 SCT030 
     BECMG 1920/1923 09010KT CAVOK
       
SADF 191000Z 00000KT 9999 SCT030 17/15 Q1023
TAF SADF 190500Z 1906/2006 09010KT 9999 SCT030 TX24/1918Z TN17/1909Z 
     PROB40 1908/1912 VRB03KT 8000 -RA BKN030 BKN050 
     BECMG 1913/1915 05005KT 9999 SCT030 
     BECMG 1921/1923 CAVOK
       
SAVC 191000Z 25006KT CAVOK 21/06 Q1009
TAF SAVC 190500Z 1906/2006 27010KT CAVOK TX35/1919Z TN18/1910Z 
     BECMG 1912/1915 32015KT 
     BECMG 2003/2005 27020G30KT
       
SACO 191000Z 32006KT CAVOK 12/11 Q1023 NOSIG
TAF SACO 190500Z 1906/2006 VRB03KT CAVOK TX28/1919Z TN13/1909Z 
     BECMG 1914/1916 07015KT 9999 SCT025 
     BECMG 2000/2002 35005KT CAVOK
       
SARC 191000Z 18010KT 9999 OVC027 19/15 Q1018
SARF 191000Z 20006KT 9999 BKN018 BKN100 20/18 Q1016
TAF SARF 190500Z 1906/2006 20010KT 9999 SCT010 BKN020 TX28/1918Z TN18/1909Z 
     BECMG 1910/1912 BKN015 
     BECMG 1914/1916 14010KT SCT020 SCT100 
     BECMG 1919/1921 SCT030 SCT100
       
SARI 191000Z 23006KT 9000 OVC005 22/20 Q1014
TAF SARI 190500Z 1906/2006 18005KT 5000 -RA BR BKN005 BKN060 TX28/1918Z
TN21/1909Z 
     BECMG 1907/1909 11005KT 3000 BR 
     PROB30 1909/1911 0800 FG OVC008 
     BECMG 1912/1914 18010KT 9999 BKN015 SCT100 
     BECMG 1917/1919 SCT025 SCT100 
     BECMG 1921/1923 CAVOK
       
SASJ 191000Z 18002KT 9999 SCT035 OVC100 17/15 Q1023
TAF SASJ 190500Z 1906/2006 VRB03KT CAVOK TX26/1918Z TN15/1910Z 
     BECMG 1914/1916 09010KT 9999 BKN025 
     BECMG 1923/2001 5000 DZRA SCT008 OVC020
       
SAZM 191000Z 29004KT CAVOK 11/11 Q1023
TAF SAZM 190500Z 1906/2006 VRB03KT 4000 BR NSC TX22/1918Z TN09/1909Z 
     BECMG 1907/1909 0800 FG 
     BECMG 1912/1914 02005KT CAVOK 
     BECMG 1916/1918 05015KT 
     BECMG 1923/2001 36010KT
       
SAME 191000Z 18004KT CAVOK 16/12 Q1019
TAF SAME 190500Z 1906/2006 VRB03KT CAVOK TX30/1920Z TN12/1910Z 
     BECMG 1915/1917 03010KT
       
SAZN 191000Z 09005KT CAVOK 19/10 Q1017
TAF SAZN 190500Z 1906/2006 05005KT CAVOK TX35/1919Z TN17/1909Z 
     BECMG 1911/1914 02015KT 
     BECMG 1923/2001 36005KT
       
SARL 191000Z 18013KT 9999 SCT008 BKN100 OVC200 17/15 Q1018
SARP 191000Z 18007KT 9999 BKN007 OVC015 18/17 Q1016 REDZ
TAF SARP 190500Z 1906/2006 18010KT 9999 OVC008 TX28/1918Z TN19/1909Z 
     PROB30 1908/1911 4000 DZ BR 
     BECMG 1911/1913 9999 SCT010 BKN020 
     BECMG 1915/1917 SCT025 SCT100 
     BECMG 1919/1921 CAVOK
       
SARE 190900Z 16008KT 9999 OVC030 19/16 Q1017
TAF SARE 190500Z 1906/2006 18010KT 8000 -DZ BKN015 OVC040 TX27/1918Z TN17/1909Z 
     BECMG 1909/1911 9999 SCT015 BKN020 
     BECMG 1915/1917 SCT025 SCT100 
     BECMG 1918/1920 CAVOK
       
SAOC 191000Z 36006KT CAVOK 13/10 Q1021
SAWG 191000Z 32007KT CAVOK 17/07 Q0996
TAF SAWG 190500Z 1906/2006 32010KT CAVOK TX21/1916Z TN13/2005Z 
     TEMPO 1906/1911 9000 -RA BKN030 OVC050 
     BECMG 1915/1917 25020G30KT 9999 BKN030 
     BECMG 2000/2002 23015KT 8000 SHRA BKN030 OVC050
       
SAWE 191000Z 32024KT 9999 BKN028 15/10 Q0991
TAF SAWE 190500Z 1906/2006 32015KT 9999 BKN020 OVC050 TX15/1919Z TN04/2006Z 
     BECMG 1911/1913 29020G30KT BKN020 BKN080 
     BECMG 1921/1923 27020KT FEW020 SCT090 
     BECMG 2004/2006 29010KT CAVOK
       
SAAR 191000Z 16003KT CAVOK 15/14 Q1022
TAF SAAR 190500Z 1906/2006 07010KT 9999 SCT030 SCT100 TX26/1918Z TN17/1909Z 
     PROB30 1907/1910 7000 NSC 
     BECMG 1912/1915 07005KT SCT035 
     BECMG 1920/1923 CAVOK
       
SASA 191000Z 32003KT 9999 FEW010 SCT015 BKN100 15/14 Q1023
TAF SASA 190500Z 1906/2006 35005KT 9999 SCT015 BKN100 TX25/1919Z TN13/1910Z 
     BECMG 1911/1913 07010KT 
     BECMG 1917/1919 7000 DZ SCT008 OVC020
       
SANT 191000Z 18004KT 9999 BKN040 17/14 Q1022
TAF SANT 190500Z 1906/2006 09005KT 9999 OVC035 TX26/1919Z TN16/1910Z 
     BECMG 1913/1915 SCT020 
     BECMG 1921/1923 BKN015 OVC030
       
SAWH 191000Z 23018KT 9999 BKN040 SCT080 12/09 Q0987
TAF SAWH 190500Z 1906/2006 32015KT 9999 SCT030 SCT080 TX16/1919Z TN04/2005Z 
     BECMG 1915/1917 25020KT -SHRA BKN020 OVC050 
     BECMG 1921/1923 VRB03KT NSW OVC020 
     BECMG 2003/2005 SCT030